sensor_id;sensor_type;location;lat;lon;timestamp;pressure;altitude;pressure_sealevel;temperature;humidity
32320;BME280;19080;51.750;5.888;2024-01-15T00:00:11;100144.31;;;2.42;100.00
32320;BME280;19080;51.750;5.888;2024-01-15T00:02:38;100131.06;;;2.37;100.00
32320;BME280;19080;51.750;5.888;2024-01-15T00:05:05;100123.94;;;2.33;100.00
32320;BME280;19080;51.750;5.888;2024-01-15T00:07:32;100118.53;;;2.28;100.00
32320;BME280;19080;51.750;5.888;2024-01-15T00:09:59;100107.31;;;2.09;100.00
32320;BME280;19080;51.750;5.888;2024-01-15T00:12:27;100118.50;;;2.05;100.00
32320;BME280;19080;51.750;5.888;2024-01-15T00:14:54;100105.84;;;1.93;100.00
32320;BME280;19080;51.750;5.888;2024-01-15T00:17:20;100123.41;;;1.95;100.00
32320;BME280;19080;51.750;5.888;2024-01-15T00:19:47;100106.56;;;1.89;100.00
32320;BME280;19080;51.750;5.888;2024-01-15T00:22:14;100113.59;;;1.90;100.00
32320;BME280;19080;51.750;5.888;2024-01-15T00:24:40;100107.19;;;1.82;100.00
32320;BME280;19080;51.750;5.888;2024-01-15T00:27:07;100091.94;;;1.70;100.00
32320;BME280;19080;51.750;5.888;2024-01-15T00:29:34;100100.50;;;1.66;100.00
32320;BME280;19080;51.750;5.888;2024-01-15T00:32:01;100111.09;;;1.69;100.00
32320;BME280;19080;51.750;5.888;2024-01-15T00:34:27;100102.16;;;1.64;100.00
32320;BME280;19080;51.750;5.888;2024-01-15T00:36:54;100098.34;;;1.56;100.00
32320;BME280;19080;51.750;5.888;2024-01-15T00:39:21;100103.06;;;1.65;100.00
32320;BME280;19080;51.750;5.888;2024-01-15T00:41:48;100096.03;;;1.63;100.00
32320;BME280;19080;51.750;5.888;2024-01-15T00:44:14;100093.59;;;1.68;100.00
32320;BME280;19080;51.750;5.888;2024-01-15T00:46:43;100085.03;;;1.72;100.00
32320;BME280;19080;51.750;5.888;2024-01-15T00:49:12;100085.06;;;1.74;100.00
32320;BME280;19080;51.750;5.888;2024-01-15T00:51:39;100067.63;;;1.73;100.00
32320;BME280;19080;51.750;5.888;2024-01-15T00:54:06;100077.34;;;1.77;100.00
32320;BME280;19080;51.750;5.888;2024-01-15T00:56:33;100077.28;;;1.75;100.00
32320;BME280;19080;51.750;5.888;2024-01-15T00:59:00;100081.47;;;1.70;100.00
32320;BME280;19080;51.750;5.888;2024-01-15T01:01:27;100083.03;;;1.65;100.00
32320;BME280;19080;51.750;5.888;2024-01-15T01:03:54;100068.81;;;1.58;100.00
32320;BME280;19080;51.750;5.888;2024-01-15T01:06:20;100065.25;;;1.56;100.00
32320;BME280;19080;51.750;5.888;2024-01-15T01:08:47;100071.25;;;1.54;100.00
32320;BME280;19080;51.750;5.888;2024-01-15T01:11:15;100057.19;;;1.50;100.00
32320;BME280;19080;51.750;5.888;2024-01-15T01:13:42;100045.47;;;1.41;100.00
32320;BME280;19080;51.750;5.888;2024-01-15T01:16:08;100056.03;;;1.44;100.00
32320;BME280;19080;51.750;5.888;2024-01-15T01:18:35;100054.16;;;1.40;100.00
32320;BME280;19080;51.750;5.888;2024-01-15T01:21:03;100051.34;;;1.35;100.00
32320;BME280;19080;51.750;5.888;2024-01-15T01:23:32;100039.72;;;1.27;100.00
32320;BME280;19080;51.750;5.888;2024-01-15T01:25:58;100054.56;;;1.28;100.00
32320;BME280;19080;51.750;5.888;2024-01-15T01:28:25;100038.75;;;1.25;100.00
32320;BME280;19080;51.750;5.888;2024-01-15T01:30:52;100042.97;;;1.21;100.00
32320;BME280;19080;51.750;5.888;2024-01-15T01:33:19;100051.63;;;1.20;100.00
32320;BME280;19080;51.750;5.888;2024-01-15T01:35:46;100057.75;;;1.21;100.00
32320;BME280;19080;51.750;5.888;2024-01-15T01:38:14;100047.97;;;1.15;100.00
32320;BME280;19080;51.750;5.888;2024-01-15T01:40:41;100051.63;;;1.20;100.00
32320;BME280;19080;51.750;5.888;2024-01-15T01:43:09;100054.97;;;1.16;100.00
32320;BME280;19080;51.750;5.888;2024-01-15T01:45:37;100048.59;;;1.10;100.00
32320;BME280;19080;51.750;5.888;2024-01-15T01:48:05;100048.84;;;1.16;100.00
32320;BME280;19080;51.750;5.888;2024-01-15T01:50:32;100069.47;;;1.30;100.00
32320;BME280;19080;51.750;5.888;2024-01-15T01:53:00;100073.03;;;1.33;100.00
32320;BME280;19080;51.750;5.888;2024-01-15T01:55:29;100063.78;;;1.41;100.00
32320;BME280;19080;51.750;5.888;2024-01-15T01:57:59;100073.75;;;1.51;100.00
32320;BME280;19080;51.750;5.888;2024-01-15T02:00:26;100011.44;;;1.17;100.00
32320;BME280;19080;51.750;5.888;2024-01-15T02:02:53;100059.50;;;1.43;100.00
32320;BME280;19080;51.750;5.888;2024-01-15T02:05:20;100066.16;;;1.35;100.00
32320;BME280;19080;51.750;5.888;2024-01-15T02:07:48;100053.44;;;1.21;100.00
32320;BME280;19080;51.750;5.888;2024-01-15T02:10:15;100059.53;;;1.22;100.00
32320;BME280;19080;51.750;5.888;2024-01-15T02:12:42;100063.75;;;1.18;100.00
32320;BME280;19080;51.750;5.888;2024-01-15T02:15:10;100044.16;;;1.07;100.00
32320;BME280;19080;51.750;5.888;2024-01-15T02:18:05;100015.63;;;0.91;100.00
32320;BME280;19080;51.750;5.888;2024-01-15T02:20:34;100040.22;;;0.96;100.00
32320;BME280;19080;51.750;5.888;2024-01-15T02:25:40;100058.03;;;1.06;100.00
32320;BME280;19080;51.750;5.888;2024-01-15T02:28:14;100041.88;;;0.94;100.00
32320;BME280;19080;51.750;5.888;2024-01-15T02:30:42;100057.03;;;1.03;100.00
32320;BME280;19080;51.750;5.888;2024-01-15T02:33:10;100047.41;;;1.02;100.00
32320;BME280;19080;51.750;5.888;2024-01-15T02:35:38;100032.81;;;0.86;100.00
32320;BME280;19080;51.750;5.888;2024-01-15T02:38:05;100058.50;;;0.96;100.00
32320;BME280;19080;51.750;5.888;2024-01-15T02:40:32;100066.72;;;1.05;100.00
32320;BME280;19080;51.750;5.888;2024-01-15T02:42:59;100064.47;;;1.14;100.00
32320;BME280;19080;51.750;5.888;2024-01-15T02:45:25;100065.06;;;1.29;100.00
32320;BME280;19080;51.750;5.888;2024-01-15T02:47:52;100057.34;;;1.33;100.00
32320;BME280;19080;51.750;5.888;2024-01-15T02:50:19;100058.00;;;1.27;100.00
32320;BME280;19080;51.750;5.888;2024-01-15T02:52:46;100034.81;;;1.14;100.00
32320;BME280;19080;51.750;5.888;2024-01-15T02:55:12;100052.47;;;1.19;100.00
32320;BME280;19080;51.750;5.888;2024-01-15T02:57:39;100059.41;;;1.19;100.00
32320;BME280;19080;51.750;5.888;2024-01-15T03:00:06;100068.28;;;1.22;100.00
32320;BME280;19080;51.750;5.888;2024-01-15T03:02:37;100048.72;;;1.13;100.00
32320;BME280;19080;51.750;5.888;2024-01-15T03:05:12;100058.28;;;1.12;100.00
32320;BME280;19080;51.750;5.888;2024-01-15T03:07:38;100052.16;;;1.12;100.00
32320;BME280;19080;51.750;5.888;2024-01-15T03:10:06;100045.69;;;1.02;100.00
32320;BME280;19080;51.750;5.888;2024-01-15T03:12:33;100056.13;;;1.02;100.00
32320;BME280;19080;51.750;5.888;2024-01-15T03:15:00;100056.13;;;1.02;100.00
32320;BME280;19080;51.750;5.888;2024-01-15T03:17:26;100036.53;;;0.91;100.00
32320;BME280;19080;51.750;5.888;2024-01-15T03:19:53;100054.09;;;0.95;100.00
32320;BME280;19080;51.750;5.888;2024-01-15T03:22:20;100061.34;;;1.02;100.00
32320;BME280;19080;51.750;5.888;2024-01-15T03:24:47;100075.50;;;1.07;100.00
32320;BME280;19080;51.750;5.888;2024-01-15T03:27:14;100065.06;;;1.07;100.00
32320;BME280;19080;51.750;5.888;2024-01-15T03:29:41;100062.94;;;1.19;100.00
32320;BME280;19080;51.750;5.888;2024-01-15T03:32:07;100060.56;;;1.25;100.00
32320;BME280;19080;51.750;5.888;2024-01-15T03:34:34;100063.22;;;1.27;100.00
32320;BME280;19080;51.750;5.888;2024-01-15T03:37:01;100059.78;;;1.28;100.00
32320;BME280;19080;51.750;5.888;2024-01-15T03:39:28;100053.53;;;1.24;100.00
32320;BME280;19080;51.750;5.888;2024-01-15T03:41:55;100071.50;;;1.38;100.00
32320;BME280;19080;51.750;5.888;2024-01-15T03:44:21;100057.72;;;1.42;100.00
32320;BME280;19080;51.750;5.888;2024-01-15T03:46:48;100057.13;;;1.49;100.00
32320;BME280;19080;51.750;5.888;2024-01-15T03:49:15;100056.56;;;1.57;100.00
32320;BME280;19080;51.750;5.888;2024-01-15T03:51:42;100043.94;;;1.46;100.00
32320;BME280;19080;51.750;5.888;2024-01-15T03:54:08;100043.69;;;1.40;100.00
32320;BME280;19080;51.750;5.888;2024-01-15T03:56:35;100038.94;;;1.29;100.00
32320;BME280;19080;51.750;5.888;2024-01-15T03:59:02;100032.63;;;1.24;100.00
32320;BME280;19080;51.750;5.888;2024-01-15T04:01:29;100025.25;;;1.14;100.00
32320;BME280;19080;51.750;5.888;2024-01-15T04:03:56;100032.16;;;1.12;100.00
32320;BME280;19080;51.750;5.888;2024-01-15T04:06:23;100016.13;;;1.03;100.00
32320;BME280;19080;51.750;5.888;2024-01-15T04:08:49;100001.66;;;0.90;100.00
32320;BME280;19080;51.750;5.888;2024-01-15T04:11:16;100019.31;;;0.96;100.00
32320;BME280;19080;51.750;5.888;2024-01-15T04:13:43;100023.00;;;1.01;100.00
32320;BME280;19080;51.750;5.888;2024-01-15T04:16:09;100018.53;;;0.98;100.00
32320;BME280;19080;51.750;5.888;2024-01-15T04:18:36;100027.69;;;1.10;100.00
32320;BME280;19080;51.750;5.888;2024-01-15T04:21:06;100019.03;;;1.11;100.00
32320;BME280;19080;51.750;5.888;2024-01-15T04:23:33;100027.22;;;1.20;100.00
32320;BME280;19080;51.750;5.888;2024-01-15T04:26:00;100018.38;;;1.16;100.00
32320;BME280;19080;51.750;5.888;2024-01-15T04:28:26;99997.09;;;1.07;100.00
32320;BME280;19080;51.750;5.888;2024-01-15T04:30:53;100009.28;;;1.07;100.00
32320;BME280;19080;51.750;5.888;2024-01-15T04:33:20;100002.09;;;1.01;100.00
32320;BME280;19080;51.750;5.888;2024-01-15T04:35:47;100002.88;;;0.98;100.00
32320;BME280;19080;51.750;5.888;2024-01-15T04:38:13;99992.16;;;0.92;100.00
32320;BME280;19080;51.750;5.888;2024-01-15T04:40:40;99977.16;;;0.87;100.00
32320;BME280;19080;51.750;5.888;2024-01-15T04:43:07;99979.06;;;0.91;100.00
32320;BME280;19080;51.750;5.888;2024-01-15T04:45:34;99988.72;;;0.93;100.00
32320;BME280;19080;51.750;5.888;2024-01-15T04:48:01;99993.31;;;0.99;100.00
32320;BME280;19080;51.750;5.888;2024-01-15T04:50:28;100000.50;;;1.05;100.00
32320;BME280;19080;51.750;5.888;2024-01-15T04:52:55;99989.97;;;1.03;100.00
32320;BME280;19080;51.750;5.888;2024-01-15T04:55:21;99970.88;;;1.04;100.00
32320;BME280;19080;51.750;5.888;2024-01-15T04:57:48;99966.00;;;1.13;100.00
32320;BME280;19080;51.750;5.888;2024-01-15T05:00:15;99999.31;;;1.41;100.00
32320;BME280;19080;51.750;5.888;2024-01-15T05:02:42;99989.75;;;1.42;100.00
32320;BME280;19080;51.750;5.888;2024-01-15T05:05:09;100003.63;;;1.41;100.00
32320;BME280;19080;51.750;5.888;2024-01-15T05:07:35;99979.94;;;1.36;100.00
32320;BME280;19080;51.750;5.888;2024-01-15T05:10:02;99984.84;;;1.51;100.00
32320;BME280;19080;51.750;5.888;2024-01-15T05:12:30;99994.75;;;1.59;100.00
32320;BME280;19080;51.750;5.888;2024-01-15T05:14:56;99993.88;;;1.59;100.00
32320;BME280;19080;51.750;5.888;2024-01-15T05:17:23;99981.84;;;1.64;100.00
32320;BME280;19080;51.750;5.888;2024-01-15T05:19:50;99971.28;;;1.61;100.00
32320;BME280;19080;51.750;5.888;2024-01-15T05:22:17;99965.94;;;1.58;100.00
32320;BME280;19080;51.750;5.888;2024-01-15T05:24:43;99958.22;;;1.61;100.00
32320;BME280;19080;51.750;5.888;2024-01-15T05:27:10;99967.09;;;1.66;100.00
32320;BME280;19080;51.750;5.888;2024-01-15T05:29:37;99953.81;;;1.60;100.00
32320;BME280;19080;51.750;5.888;2024-01-15T05:32:03;99976.63;;;1.64;100.00
32320;BME280;19080;51.750;5.888;2024-01-15T05:34:30;99980.31;;;1.69;100.00
32320;BME280;19080;51.750;5.888;2024-01-15T05:36:57;99963.16;;;1.53;100.00
32320;BME280;19080;51.750;5.888;2024-01-15T05:39:24;99967.84;;;1.62;100.00
32320;BME280;19080;51.750;5.888;2024-01-15T05:41:51;99960.03;;;1.63;100.00
32320;BME280;19080;51.750;5.888;2024-01-15T05:44:17;99963.72;;;1.69;100.00
32320;BME280;19080;51.750;5.888;2024-01-15T05:46:44;99964.50;;;1.66;100.00
32320;BME280;19080;51.750;5.888;2024-01-15T05:49:10;99953.69;;;1.57;100.00
32320;BME280;19080;51.750;5.888;2024-01-15T05:51:37;99954.25;;;1.48;100.00
32320;BME280;19080;51.750;5.888;2024-01-15T05:54:04;99951.69;;;1.50;100.00
32320;BME280;19080;51.750;5.888;2024-01-15T05:56:31;99953.59;;;1.54;100.00
32320;BME280;19080;51.750;5.888;2024-01-15T05:58:57;99946.69;;;1.56;100.00
32320;BME280;19080;51.750;5.888;2024-01-15T06:01:24;99957.38;;;1.62;100.00
32320;BME280;19080;51.750;5.888;2024-01-15T06:03:52;99969.06;;;1.72;100.00
32320;BME280;19080;51.750;5.888;2024-01-15T06:06:19;99959.38;;;1.69;100.00
32320;BME280;19080;51.750;5.888;2024-01-15T06:08:45;99957.78;;;1.74;100.00
32320;BME280;19080;51.750;5.888;2024-01-15T06:11:12;99962.44;;;1.83;100.00
32320;BME280;19080;51.750;5.888;2024-01-15T06:13:39;99955.44;;;1.82;100.00
32320;BME280;19080;51.750;5.888;2024-01-15T06:16:15;99961.66;;;1.85;100.00
32320;BME280;19080;51.750;5.888;2024-01-15T06:18:46;99963.28;;;1.82;100.00
32320;BME280;19080;51.750;5.888;2024-01-15T06:21:13;99945.56;;;1.73;100.00
32320;BME280;19080;51.750;5.888;2024-01-15T06:23:41;99920.88;;;1.65;100.00
32320;BME280;19080;51.750;5.888;2024-01-15T06:26:11;99941.25;;;1.75;100.00
32320;BME280;19080;51.750;5.888;2024-01-15T06:28:38;99936.63;;;1.67;100.00
32320;BME280;19080;51.750;5.888;2024-01-15T06:31:06;99933.00;;;1.63;100.00
32320;BME280;19080;51.750;5.888;2024-01-15T06:33:34;99947.25;;;1.71;100.00
32320;BME280;19080;51.750;5.888;2024-01-15T06:36:00;99941.97;;;1.70;100.00
32320;BME280;19080;51.750;5.888;2024-01-15T06:38:27;99945.56;;;1.73;100.00
32320;BME280;19080;51.750;5.888;2024-01-15T06:40:55;99940.34;;;1.73;100.00
32320;BME280;19080;51.750;5.888;2024-01-15T06:43:22;99939.28;;;1.68;100.00
32320;BME280;19080;51.750;5.888;2024-01-15T06:45:49;99944.75;;;1.76;100.00
32320;BME280;19080;51.750;5.888;2024-01-15T06:48:16;99938.84;;;1.81;100.00
32320;BME280;19080;51.750;5.888;2024-01-15T06:50:43;99957.22;;;1.83;100.00
32320;BME280;19080;51.750;5.888;2024-01-15T06:53:10;99949.44;;;1.84;100.00
32320;BME280;19080;51.750;5.888;2024-01-15T06:55:38;99946.09;;;1.88;100.00
32320;BME280;19080;51.750;5.888;2024-01-15T06:58:05;99956.53;;;1.88;100.00
32320;BME280;19080;51.750;5.888;2024-01-15T07:00:32;99952.19;;;1.89;100.00
32320;BME280;19080;51.750;5.888;2024-01-15T07:02:59;99953.19;;;1.92;100.00
32320;BME280;19080;51.750;5.888;2024-01-15T07:05:25;99954.88;;;1.90;100.00
32320;BME280;19080;51.750;5.888;2024-01-15T07:07:53;99962.00;;;1.94;100.00
32320;BME280;19080;51.750;5.888;2024-01-15T07:10:19;99959.31;;;1.93;100.00
32320;BME280;19080;51.750;5.888;2024-01-15T07:12:46;99965.34;;;1.90;100.00
32320;BME280;19080;51.750;5.888;2024-01-15T07:15:13;99951.19;;;1.85;100.00
32320;BME280;19080;51.750;5.888;2024-01-15T07:17:40;99961.88;;;1.91;100.00
32320;BME280;19080;51.750;5.888;2024-01-15T07:20:08;99955.72;;;1.89;100.00
32320;BME280;19080;51.750;5.888;2024-01-15T07:22:36;99940.63;;;1.82;100.00
32320;BME280;19080;51.750;5.888;2024-01-15T07:25:04;99960.22;;;1.93;100.00
32320;BME280;19080;51.750;5.888;2024-01-15T07:27:31;99960.00;;;1.87;100.00
32320;BME280;19080;51.750;5.888;2024-01-15T07:29:59;99942.09;;;1.74;100.00
32320;BME280;19080;51.750;5.888;2024-01-15T07:32:28;99957.59;;;1.68;100.00
32320;BME280;19080;51.750;5.888;2024-01-15T07:34:55;99963.44;;;1.61;100.00
32320;BME280;19080;51.750;5.888;2024-01-15T07:37:22;99961.53;;;1.57;100.00
32320;BME280;19080;51.750;5.888;2024-01-15T07:39:49;99968.44;;;1.55;100.00
32320;BME280;19080;51.750;5.888;2024-01-15T07:42:16;99979.72;;;1.54;100.00
32320;BME280;19080;51.750;5.888;2024-01-15T07:44:43;99976.13;;;1.50;100.00
32320;BME280;19080;51.750;5.888;2024-01-15T07:47:09;99959.38;;;1.45;100.00
32320;BME280;19080;51.750;5.888;2024-01-15T07:49:36;99971.16;;;1.58;100.00
32320;BME280;19080;51.750;5.888;2024-01-15T07:52:03;99960.16;;;1.43;100.00
32320;BME280;19080;51.750;5.888;2024-01-15T07:54:31;99958.38;;;1.42;100.00
32320;BME280;19080;51.750;5.888;2024-01-15T07:57:02;99957.03;;;1.53;100.00
32320;BME280;19080;51.750;5.888;2024-01-15T07:59:30;99951.97;;;1.57;100.00
32320;BME280;19080;51.750;5.888;2024-01-15T08:01:58;99974.78;;;1.61;100.00
32320;BME280;19080;51.750;5.888;2024-01-15T08:04:25;99964.38;;;1.63;100.00
32320;BME280;19080;51.750;5.888;2024-01-15T08:06:52;99972.34;;;1.66;100.00
32320;BME280;19080;51.750;5.888;2024-01-15T08:09:19;99978.19;;;1.59;100.00
32320;BME280;19080;51.750;5.888;2024-01-15T08:11:46;99974.72;;;1.60;100.00
32320;BME280;19080;51.750;5.888;2024-01-15T08:14:12;99988.63;;;1.59;100.00
32320;BME280;19080;51.750;5.888;2024-01-15T08:16:40;99993.09;;;1.61;100.00
32320;BME280;19080;51.750;5.888;2024-01-15T08:19:07;99987.88;;;1.61;100.00
32320;BME280;19080;51.750;5.888;2024-01-15T08:21:34;99993.38;;;1.69;100.00
32320;BME280;19080;51.750;5.888;2024-01-15T08:24:02;99960.81;;;1.61;100.00
32320;BME280;19080;51.750;5.888;2024-01-15T08:26:29;99959.94;;;1.60;100.00
32320;BME280;19080;51.750;5.888;2024-01-15T08:28:56;99976.50;;;1.61;100.00
32320;BME280;19080;51.750;5.888;2024-01-15T08:31:23;99980.41;;;1.72;100.00
32320;BME280;19080;51.750;5.888;2024-01-15T08:33:50;99983.88;;;1.71;100.00
32320;BME280;19080;51.750;5.888;2024-01-15T08:36:17;99981.06;;;1.67;100.00
32320;BME280;19080;51.750;5.888;2024-01-15T08:38:44;99972.28;;;1.65;100.00
32320;BME280;19080;51.750;5.888;2024-01-15T08:41:11;99958.69;;;1.51;100.00
32320;BME280;19080;51.750;5.888;2024-01-15T08:43:38;99985.41;;;1.66;100.00
32320;BME280;19080;51.750;5.888;2024-01-15T08:46:04;99979.41;;;1.69;100.00
32320;BME280;19080;51.750;5.888;2024-01-15T08:48:31;99968.56;;;1.58;100.00
32320;BME280;19080;51.750;5.888;2024-01-15T08:50:58;99985.63;;;1.72;100.00
32320;BME280;19080;51.750;5.888;2024-01-15T08:53:25;99968.41;;;1.79;100.00
32320;BME280;19080;51.750;5.888;2024-01-15T08:55:52;99982.03;;;1.94;100.00
32320;BME280;19080;51.750;5.888;2024-01-15T08:58:18;99984.38;;;1.86;100.00
32320;BME280;19080;51.750;5.888;2024-01-15T09:00:45;99988.44;;;1.78;100.00
32320;BME280;19080;51.750;5.888;2024-01-15T09:03:12;99984.28;;;1.83;100.00
32320;BME280;19080;51.750;5.888;2024-01-15T09:05:39;99977.25;;;1.82;100.00
32320;BME280;19080;51.750;5.888;2024-01-15T09:08:07;99988.72;;;1.86;100.00
32320;BME280;19080;51.750;5.888;2024-01-15T09:10:34;99976.44;;;1.83;100.00
32320;BME280;19080;51.750;5.888;2024-01-15T09:13:00;99974.34;;;1.73;100.00
32320;BME280;19080;51.750;5.888;2024-01-15T09:15:27;99967.56;;;1.80;100.00
32320;BME280;19080;51.750;5.888;2024-01-15T09:17:54;99980.81;;;1.84;100.00
32320;BME280;19080;51.750;5.888;2024-01-15T09:20:21;99983.38;;;1.83;100.00
32320;BME280;19080;51.750;5.888;2024-01-15T09:22:47;99991.06;;;1.78;100.00
32320;BME280;19080;51.750;5.888;2024-01-15T09:25:14;99987.50;;;1.76;100.00
32320;BME280;19080;51.750;5.888;2024-01-15T09:27:41;99981.31;;;1.73;100.00
32320;BME280;19080;51.750;5.888;2024-01-15T09:30:09;99988.25;;;1.72;100.00
32320;BME280;19080;51.750;5.888;2024-01-15T09:32:36;99995.22;;;1.72;100.00
32320;BME280;19080;51.750;5.888;2024-01-15T09:35:03;99994.94;;;1.64;100.00
32320;BME280;19080;51.750;5.888;2024-01-15T09:37:30;100001.34;;;1.72;100.00
32320;BME280;19080;51.750;5.888;2024-01-15T09:40:13;100004.88;;;1.74;100.00
32320;BME280;19080;51.750;5.888;2024-01-15T09:42:42;99994.50;;;1.77;100.00
32320;BME280;19080;51.750;5.888;2024-01-15T09:45:09;99999.13;;;1.84;100.00
32320;BME280;19080;51.750;5.888;2024-01-15T09:47:37;99985.66;;;1.74;100.00
32320;BME280;19080;51.750;5.888;2024-01-15T09:50:09;99990.16;;;1.78;100.00
32320;BME280;19080;51.750;5.888;2024-01-15T09:52:36;99999.84;;;1.80;100.00
32320;BME280;19080;51.750;5.888;2024-01-15T09:55:03;100005.25;;;1.85;100.00
32320;BME280;19080;51.750;5.888;2024-01-15T09:57:32;100003.63;;;1.88;100.00
32320;BME280;19080;51.750;5.888;2024-01-15T10:00:01;99996.75;;;1.90;100.00
32320;BME280;19080;51.750;5.888;2024-01-15T10:02:31;100008.09;;;3.79;100.00
32320;BME280;19080;51.750;5.888;2024-01-15T10:04:58;99996.22;;;4.93;100.00
32320;BME280;19080;51.750;5.888;2024-01-15T10:07:25;100000.94;;;4.05;100.00
32320;BME280;19080;51.750;5.888;2024-01-15T10:09:52;99997.06;;;3.61;100.00
32320;BME280;19080;51.750;5.888;2024-01-15T10:12:22;99997.41;;;3.13;100.00
32320;BME280;19080;51.750;5.888;2024-01-15T10:14:50;99983.91;;;3.01;100.00
32320;BME280;19080;51.750;5.888;2024-01-15T10:17:17;99997.69;;;3.22;100.00
32320;BME280;19080;51.750;5.888;2024-01-15T10:19:45;100002.97;;;3.24;100.00
32320;BME280;19080;51.750;5.888;2024-01-15T10:22:16;99986.50;;;3.28;100.00
32320;BME280;19080;51.750;5.888;2024-01-15T10:24:45;100003.84;;;3.24;100.00
32320;BME280;19080;51.750;5.888;2024-01-15T10:27:13;99984.66;;;2.97;100.00
32320;BME280;19080;51.750;5.888;2024-01-15T10:29:41;99972.53;;;2.74;100.00
32320;BME280;19080;51.750;5.888;2024-01-15T10:32:09;99993.59;;;2.77;100.00
32320;BME280;19080;51.750;5.888;2024-01-15T10:34:41;99978.66;;;2.47;100.00
32320;BME280;19080;51.750;5.888;2024-01-15T10:37:10;99996.97;;;2.47;100.00
32320;BME280;19080;51.750;5.888;2024-01-15T10:39:37;99984.31;;;2.59;100.00
32320;BME280;19080;51.750;5.888;2024-01-15T10:42:05;99976.03;;;3.30;100.00
32320;BME280;19080;51.750;5.888;2024-01-15T10:44:34;99968.03;;;3.25;100.00
32320;BME280;19080;51.750;5.888;2024-01-15T10:47:01;99982.03;;;3.25;100.00
32320;BME280;19080;51.750;5.888;2024-01-15T10:49:28;99978.19;;;3.14;100.00
32320;BME280;19080;51.750;5.888;2024-01-15T10:52:01;99969.13;;;3.03;100.00
32320;BME280;19080;51.750;5.888;2024-01-15T10:54:29;99988.69;;;3.14;100.00
32320;BME280;19080;51.750;5.888;2024-01-15T10:56:56;99985.31;;;3.18;100.00
32320;BME280;19080;51.750;5.888;2024-01-15T10:59:23;99963.13;;;3.36;100.00
32320;BME280;19080;51.750;5.888;2024-01-15T11:01:51;99958.81;;;3.69;100.00
32320;BME280;19080;51.750;5.888;2024-01-15T11:04:23;99987.78;;;4.37;100.00
32320;BME280;19080;51.750;5.888;2024-01-15T11:06:53;99986.88;;;4.69;100.00
32320;BME280;19080;51.750;5.888;2024-01-15T11:09:23;99974.00;;;4.80;100.00
32320;BME280;19080;51.750;5.888;2024-01-15T11:12:10;99986.44;;;5.65;100.00
32320;BME280;19080;51.750;5.888;2024-01-15T11:14:42;99982.94;;;6.08;100.00
32320;BME280;19080;51.750;5.888;2024-01-15T11:17:12;99966.06;;;7.00;100.00
32320;BME280;19080;51.750;5.888;2024-01-15T11:19:45;99972.03;;;7.47;100.00
32320;BME280;19080;51.750;5.888;2024-01-15T11:25:13;99963.41;;;7.60;100.00
32320;BME280;19080;51.750;5.888;2024-01-15T11:27:45;99972.66;;;7.29;100.00
32320;BME280;19080;51.750;5.888;2024-01-15T11:30:14;99975.19;;;7.22;100.00
32320;BME280;19080;51.750;5.888;2024-01-15T11:32:41;99962.81;;;7.17;100.00
32320;BME280;19080;51.750;5.888;2024-01-15T11:35:10;99968.91;;;5.67;100.00
32320;BME280;19080;51.750;5.888;2024-01-15T11:40:43;99973.38;;;3.89;100.00
32320;BME280;19080;51.750;5.888;2024-01-15T11:43:10;99996.34;;;3.67;100.00
32320;BME280;19080;51.750;5.888;2024-01-15T11:45:39;99985.84;;;3.67;100.00
32320;BME280;19080;51.750;5.888;2024-01-15T11:48:14;99973.09;;;4.10;100.00
32320;BME280;19080;51.750;5.888;2024-01-15T11:50:48;100000.16;;;4.08;100.00
32320;BME280;19080;51.750;5.888;2024-01-15T11:54:00;99972.88;;;3.71;100.00
32320;BME280;19080;51.750;5.888;2024-01-15T11:56:15;99976.56;;;3.46;100.00
32320;BME280;19080;51.750;5.888;2024-01-15T11:58:43;99999.13;;;3.41;100.00
32320;BME280;19080;51.750;5.888;2024-01-15T12:01:11;99987.16;;;3.21;100.00
32320;BME280;19080;51.750;5.888;2024-01-15T12:03:37;100009.09;;;3.24;100.00
32320;BME280;19080;51.750;5.888;2024-01-15T12:06:09;99994.69;;;3.10;100.00
32320;BME280;19080;51.750;5.888;2024-01-15T12:08:37;100000.09;;;3.16;100.00
32320;BME280;19080;51.750;5.888;2024-01-15T12:11:06;100009.09;;;3.24;100.00
32320;BME280;19080;51.750;5.888;2024-01-15T12:13:36;99999.97;;;3.12;100.00
32320;BME280;19080;51.750;5.888;2024-01-15T12:16:03;100010.25;;;3.06;100.00
32320;BME280;19080;51.750;5.888;2024-01-15T12:18:30;99978.66;;;2.74;100.00
32320;BME280;19080;51.750;5.888;2024-01-15T12:20:57;100015.19;;;2.70;100.00
32320;BME280;19080;51.750;5.888;2024-01-15T12:23:25;100009.97;;;2.70;100.00
32320;BME280;19080;51.750;5.888;2024-01-15T12:25:54;99998.09;;;2.54;100.00
32320;BME280;19080;51.750;5.888;2024-01-15T12:28:20;100010.44;;;2.58;100.00
32320;BME280;19080;51.750;5.888;2024-01-15T12:30:47;100021.13;;;2.64;100.00
32320;BME280;19080;51.750;5.888;2024-01-15T12:33:17;100011.84;;;2.74;100.00
32320;BME280;19080;51.750;5.888;2024-01-15T12:35:45;100027.63;;;2.75;100.00
32320;BME280;19080;51.750;5.888;2024-01-15T12:38:11;100018.19;;;2.80;100.00
32320;BME280;19080;51.750;5.888;2024-01-15T12:40:38;100020.78;;;2.80;100.00
32320;BME280;19080;51.750;5.888;2024-01-15T12:43:05;100038.56;;;2.89;100.00
32320;BME280;19080;51.750;5.888;2024-01-15T12:45:33;100009.38;;;2.78;100.00
32320;BME280;19080;51.750;5.888;2024-01-15T12:48:02;100028.38;;;2.98;100.00
32320;BME280;19080;51.750;5.888;2024-01-15T12:50:30;100026.78;;;3.03;100.00
32320;BME280;19080;51.750;5.888;2024-01-15T12:52:57;100032.41;;;3.15;100.00
32320;BME280;19080;51.750;5.888;2024-01-15T12:55:26;100009.09;;;2.96;100.00
32320;BME280;19080;51.750;5.888;2024-01-15T12:57:53;100012.75;;;3.01;100.00
32320;BME280;19080;51.750;5.888;2024-01-15T13:00:22;100030.00;;;2.94;100.00
32320;BME280;19080;51.750;5.888;2024-01-15T13:02:49;100044.59;;;2.86;100.00
32320;BME280;19080;51.750;5.888;2024-01-15T13:05:17;100015.41;;;2.76;100.00